Terminal Aerodrome Forecast
Issued by NWS Los Angeles, CA

Home | Current Version | Previous Version | Text Only | Print | Product List | Glossary On
Versions: 1 2 3 4 5 6 7 8 9 10 11 12 13 14
790
FTUS46 KLOX 120411 AAB
TAFSMX
TAF AMD
KSMX 120411Z 1204/1224 VRB03KT 4SM BR BKN004 BKN250
      TEMPO 1204/1206 1/2SM FG BKN001 BKN250
     FM121000 00000KT 1/2SM FG BKN001 BKN250
     FM121400 VRB03KT 4SM BR BKN004 BKN250
     FM121700 31006KT P6SM BKN250
     FM122100 31010KT P6SM OVC200=

USA.gov is the U.S. government's official web portal to all federal, state and local government web resources and services.